Startpagina
METAR-TAF:

METAR-TAF

Vliegvelden :

Djedda, Saoedi-Arabië

breedte: 21-42N, lengte: 039-11E, hoogte: 15 m

Actueel weer

Dit bericht is 1 uur en het 3 minuten geleden gemaakt, om 23:00 UTC
Weinig wind
Temperatuur 30°C
Vochtigheid 66%
Druk 1001 hPa
Zicht 10 km of meer
geen wolken onder 1500 m en geen cumulonimbus

METAR: OEJN 272300Z 00000KT CAVOK 30/23 Q1001 NOSIG

Tijdstip: 03:03 (00:03 UTC)

Verwachting

Dit bericht is 1 uur en het 3 minuten geleden gemaakt, om 23:00 UTC
Verwachting geldig van 28 om 00 UTC tot 29 om 06 UTC
Wind 6 kt uit het oosten
Zicht 10 km of meer
geen wolken onder 1500 m en geen cumulonimbus
Wijzigt naar
van 28 om 06 UTC tot 28 om 08 UTC
Wind 12 kt uit het westzuidwesten

TAF: OEJN 272300Z 2800/2906 08006KT CAVOK BECMG 2806/2808 24012KT

Waarnemingen en weersverwachtingen van meer dan 4000 vliegvelden (METAR en TAF).

De beschikbare stations zijn de gele en rode punten op de kaart.

Ga met uw muis naar het station om de naam te zien.

Klik dan om waarnemingen en weersverwachtingen te zien.

kaart wijzigen: klik op de groene knoppen met een zwart kruis om in te zoomen, op de groene knop met een streepje om uit te zoomen of op de groene pijlen voor aangrenzende kaarten.


METAR-TAF: